Orbital elements of COSMOS 252 DEB
| Launched | 31 October 1968 |
| Flight ended | – |
| Launch site | Tyuratam Missile and Space Center, Kazakhstan (Also known as Baikonur Cosmodrome) |
| Owner | Commonwealth of Independent States (former USSR) |
| NORAD ID | 18597 |
| Date fetched |
Epoch osculation |
Inc. [°] |
Ecc. | RA asc node [hr] |
Arg Peri. [°] |
Mean anom [°] |
Mean motion [rev/day] |
Abs. mag |
| Date fetched |
Epoch osculation |
Inc. [°] |
Ecc. | RA asc node [hr] |
Arg Peri. [°] |
Mean anom [°] |
Mean motion [rev/day] |
Abs. mag |
| 2026 May 04 17:57 | 2026 Apr 28 18:24:31 | 62.2545 | 0.07774 | 3.0592 | 40.2019 | 325.3885 | 12.75650 | – |
| 2026 May 03 17:57 | 2026 Apr 28 18:24:31 | 62.2545 | 0.07774 | 3.0592 | 40.2019 | 325.3885 | 12.75650 | – |
| 2026 May 02 17:57 | 2026 Apr 28 18:24:31 | 62.2545 | 0.07774 | 3.0592 | 40.2019 | 325.3885 | 12.75650 | – |
| 2026 May 01 17:56 | 2026 Apr 28 18:24:31 | 62.2545 | 0.07774 | 3.0592 | 40.2019 | 325.3885 | 12.75650 | – |
| 2026 Apr 30 17:56 | 2026 Apr 28 18:24:31 | 62.2545 | 0.07774 | 3.0592 | 40.2019 | 325.3885 | 12.75650 | – |
| 2026 Apr 29 17:57 | 2026 Apr 23 23:38:51 | 62.2544 | 0.07770 | 3.8203 | 39.1818 | 325.3885 | 12.75650 | – |
| 2026 Apr 28 17:56 | 2026 Apr 23 23:38:51 | 62.2544 | 0.07770 | 3.8203 | 39.1818 | 325.3885 | 12.75650 | – |
| 2026 Apr 27 17:58 | 2026 Apr 23 23:38:51 | 62.2544 | 0.07770 | 3.8203 | 39.1818 | 325.3885 | 12.75650 | – |
| 2026 Apr 26 17:58 | 2026 Apr 23 23:38:51 | 62.2544 | 0.07770 | 3.8203 | 39.1818 | 325.3885 | 12.75650 | – |
| 2026 Apr 25 17:58 | 2026 Apr 23 23:38:51 | 62.2544 | 0.07770 | 3.8203 | 39.1818 | 325.3885 | 12.75650 | – |
| 2026 Apr 24 17:59 | 2026 Apr 23 23:38:51 | 62.2544 | 0.07770 | 3.8203 | 39.1818 | 325.3885 | 12.75650 | – |
| 2026 Apr 23 17:57 | 2026 Apr 18 06:18:32 | 62.2529 | 0.07764 | 4.7310 | 37.9587 | 325.3885 | 12.75650 | – |
| 2026 Apr 22 17:57 | 2026 Apr 18 06:18:32 | 62.2529 | 0.07764 | 4.7310 | 37.9587 | 325.3885 | 12.75650 | – |
| 2026 Apr 21 17:57 | 2026 Apr 18 06:18:32 | 62.2529 | 0.07764 | 4.7310 | 37.9587 | 325.3885 | 12.75650 | – |
| 2026 Apr 20 17:57 | 2026 Apr 18 06:18:32 | 62.2529 | 0.07764 | 4.7310 | 37.9587 | 325.3885 | 12.75650 | – |
| 2026 Apr 19 17:58 | 2026 Apr 18 06:18:32 | 62.2529 | 0.07764 | 4.7310 | 37.9587 | 325.3885 | 12.75650 | – |
| 2026 Apr 18 17:56 | 2026 Apr 12 09:12:23 | 62.2515 | 0.07756 | 5.6667 | 36.7208 | 325.3885 | 12.75650 | – |
| 2026 Apr 16 17:57 | 2026 Apr 12 09:12:23 | 62.2515 | 0.07756 | 5.6667 | 36.7208 | 325.3885 | 12.75650 | – |
| 2026 Apr 14 17:57 | 2026 Apr 12 09:12:23 | 62.2515 | 0.07756 | 5.6667 | 36.7208 | 325.3885 | 12.75650 | – |
| 2026 Apr 13 17:57 | 2026 Apr 12 09:12:23 | 62.2515 | 0.07756 | 5.6667 | 36.7208 | 325.3885 | 12.75650 | – |
| 2026 Apr 12 17:57 | 2026 Apr 08 01:43:50 | 62.2506 | 0.07752 | 6.3528 | 35.8300 | 325.3885 | 12.75650 | – |
| 2026 Apr 11 17:57 | 2026 Apr 08 01:43:50 | 62.2506 | 0.07752 | 6.3528 | 35.8300 | 325.3885 | 12.75650 | – |
| 2026 Apr 10 17:58 | 2026 Apr 08 01:43:50 | 62.2506 | 0.07752 | 6.3528 | 35.8300 | 325.3885 | 12.75650 | – |
| 2026 Apr 09 18:01 | 2026 Apr 08 01:43:50 | 62.2506 | 0.07752 | 6.3528 | 35.8300 | 325.3885 | 12.75650 | – |
| 2026 Apr 08 17:57 | 2026 Apr 08 01:43:50 | 62.2506 | 0.07752 | 6.3528 | 35.8300 | 325.3885 | 12.75650 | – |
| 2026 Apr 07 17:57 | 2026 Apr 02 00:51:47 | 62.2506 | 0.07750 | 7.3135 | 34.5576 | 325.3885 | 12.75650 | – |